Time;durP1;ratioP1;P1;durP2;ratioP2;P2;SDS_P1;SDS_P2;PMS_P1;PMS_P2;Temp;Humidity;BMP_temperature;BMP_pressure;BME280_temperature;BME280_humidity;BME280_pressure;Samples;Min_cycle;Max_cycle;Signal;HPM_P1;HPM_P2
2021/08/02 00:01:09;;;;;;;6.10;3.20;;;16.00;99.90;;;;;;5111346;28;20400;-82
2021/08/02 00:03:50;;;;;;;4.20;3.80;;;15.90;99.90;;;;;;5111591;28;20476;-82
2021/08/02 00:06:23;;;;;;;3.80;3.50;;;15.80;99.90;;;;;;5099701;28;20446;-84
2021/08/02 00:09:04;;;;;;;4.30;4.00;;;15.80;99.90;;;;;;5099347;28;20436;-84
2021/08/02 00:11:44;;;;;;;3.93;3.60;;;15.90;99.90;;;;;;5081012;28;20388;-84
2021/08/02 00:14:13;;;;;;;3.77;3.30;;;16.00;99.90;;;;;;5080930;28;20444;-84
2021/08/02 00:16:39;;;;;;;4.90;3.27;;;16.00;99.90;;;;;;5099638;28;20388;-85
2021/08/02 00:19:06;;;;;;;3.20;2.90;;;16.20;99.90;;;;;;5098448;28;20393;-84
2021/08/02 00:21:31;;;;;;;7.73;3.83;;;16.00;99.90;;;;;;5099668;28;20393;-84
2021/08/02 00:23:57;;;;;;;4.03;2.90;;;16.00;99.90;;;;;;5099364;28;20389;-84
2021/08/02 00:26:23;;;;;;;3.80;3.50;;;16.10;99.90;;;;;;5099274;28;20169;-84
2021/08/02 00:28:50;;;;;;;4.30;3.50;;;16.20;99.90;;;;;;5099246;28;20155;-84
2021/08/02 00:31:16;;;;;;;3.93;3.60;;;16.20;99.90;;;;;;5099162;28;20385;-85
2021/08/02 00:33:42;;;;;;;5.60;3.43;;;16.00;99.90;;;;;;5099045;28;20428;-85
2021/08/02 00:36:24;;;;;;;3.97;3.63;;;16.20;99.90;;;;;;5099113;28;20163;-85
2021/08/02 00:38:58;;;;;;;4.33;3.93;;;16.20;99.90;;;;;;5098770;28;20549;-84
2021/08/02 00:41:53;;;;;;;3.50;3.30;;;16.00;99.90;;;;;;5098808;28;20454;-84
2021/08/02 00:44:42;;;;;;;4.37;3.27;;;16.00;99.90;;;;;;5099287;28;20392;-83
2021/08/02 00:47:12;;;;;;;5.20;3.70;;;16.00;99.90;;;;;;5080546;28;20411;-83
2021/08/02 00:49:47;;;;;;;3.87;3.50;;;16.00;99.90;;;;;;5098671;28;20918;-84
2021/08/02 00:52:14;;;;;;;6.87;3.77;;;15.90;99.90;;;;;;5099288;28;20480;-84
2021/08/02 00:54:40;;;;;;;5.37;3.77;;;15.70;99.90;;;;;;5098474;28;20432;-84
2021/08/02 00:57:09;;;;;;;3.80;3.50;;;15.80;99.90;;;;;;5097932;28;20385;-84
2021/08/02 00:59:35;;;;;;;3.40;3.10;;;15.90;99.90;;;;;;5098598;28;20732;-85
2021/08/02 01:02:00;;;;;;;4.07;3.70;;;15.90;99.90;;;;;;5104913;28;20385;-84
2021/08/02 01:04:27;;;;;;;4.03;3.43;;;15.80;99.90;;;;;;5103597;28;20185;-84
2021/08/02 01:06:53;;;;;;;3.93;3.63;;;15.90;99.90;;;;;;5098880;28;20159;-85
2021/08/02 01:09:21;;;;;;;3.67;3.37;;;16.10;99.90;;;;;;5098049;28;20845;-85
2021/08/02 01:11:51;;;;;;;4.27;3.87;;;16.10;99.90;;;;;;5098735;28;20388;-84
2021/08/02 01:14:19;;;;;;;3.70;3.40;;;16.10;99.90;;;;;;5098161;28;20771;-85
2021/08/02 01:16:46;;;;;;;3.50;3.20;;;16.00;99.90;;;;;;5098068;28;20741;-84
2021/08/02 01:19:12;;;;;;;3.97;3.63;;;16.10;99.90;;;;;;5098022;28;20381;-84
2021/08/02 01:21:40;;;;;;;5.90;3.20;;;16.30;99.90;;;;;;5098213;28;20864;-84
2021/08/02 01:24:07;;;;;;;3.80;2.87;;;16.20;99.90;;;;;;5097682;28;20166;-84
2021/08/02 01:27:13;;;;;;;2.83;2.63;;;16.30;99.90;;;;;;5098066;28;20396;-84
2021/08/02 01:30:17;;;;;;;2.77;2.57;;;16.40;99.90;;;;;;5085620;28;20569;-84
2021/08/02 01:32:43;;;;;;;3.57;2.90;;;16.60;99.90;;;;;;5097779;28;20470;-85
2021/08/02 01:35:12;;;;;;;5.60;3.40;;;16.90;99.90;;;;;;5098234;28;20463;-85
2021/08/02 01:37:38;;;;;;;3.10;2.73;;;17.00;99.90;;;;;;5079604;28;20833;-84
2021/08/02 01:40:04;;;;;;;3.00;2.80;;;17.00;99.90;;;;;;5098109;28;20392;-84
2021/08/02 01:42:30;;;;;;;4.40;3.17;;;17.00;99.90;;;;;;5097353;28;20170;-84
2021/08/02 01:44:55;;;;;;;3.73;3.37;;;17.20;99.90;;;;;;5097556;28;20389;-83
2021/08/02 01:47:30;;;;;;;3.70;3.10;;;17.30;99.90;;;;;;5097661;28;20508;-84
2021/08/02 01:50:05;;;;;;;3.63;3.07;;;17.20;99.90;;;;;;5097309;28;20162;-84
2021/08/02 01:52:39;;;;;;;4.00;3.60;;;16.90;99.90;;;;;;5097633;28;20479;-84
2021/08/02 01:55:12;;;;;;;4.80;2.63;;;16.90;99.90;;;;;;5097452;28;20486;-84
2021/08/02 01:58:00;;;;;;;3.07;2.50;;;17.00;99.90;;;;;;5097023;28;20878;-82
2021/08/02 02:00:27;;;;;;;3.27;2.97;;;16.90;99.90;;;;;;5098145;28;20745;-84
2021/08/02 02:03:12;;;;;;;2.63;2.43;;;17.10;99.90;;;;;;5097443;28;20957;-84
2021/08/02 02:05:40;;;;;;;2.40;2.30;;;17.10;99.90;;;;;;5098038;28;20404;-85
2021/08/02 02:08:16;;;;;;;2.63;2.43;;;17.10;99.90;;;;;;5097623;28;20420;-84
2021/08/02 02:10:47;;;;;;;2.87;2.67;;;16.90;99.90;;;;;;5096471;28;20420;-84
2021/08/02 02:13:18;;;;;;;3.60;3.20;;;16.80;99.90;;;;;;5097578;28;20856;-85
2021/08/02 02:15:48;;;;;;;3.40;3.10;;;16.90;99.90;;;;;;5097092;28;20389;-85
2021/08/02 02:18:15;;;;;;;5.37;2.93;;;16.70;99.90;;;;;;5097436;28;20435;-85
2021/08/02 02:20:43;;;;;;;3.03;2.83;;;16.80;99.90;;;;;;5078561;28;20452;-84
2021/08/02 02:23:09;;;;;;;2.97;2.73;;;16.80;99.90;;;;;;5096877;28;20381;-85
2021/08/02 02:25:35;;;;;;;3.30;2.67;;;16.80;99.90;;;;;;5099984;28;20389;-84
2021/08/02 02:28:00;;;;;;;2.87;2.67;;;16.70;99.90;;;;;;5099434;28;20416;-84
2021/08/02 02:30:26;;;;;;;8.93;2.97;;;16.70;99.90;;;;;;5102663;28;20158;-84
2021/08/02 02:32:53;;;;;;;6.20;3.10;;;16.80;99.90;;;;;;5097804;28;20180;-84
2021/08/02 02:35:20;;;;;;;2.70;2.50;;;16.70;99.90;;;;;;5097742;28;20545;-84
2021/08/02 02:37:47;;;;;;;4.20;2.90;;;16.70;99.90;;;;;;5096960;28;20391;-84
2021/08/02 02:40:13;;;;;;;3.33;2.23;;;16.70;99.90;;;;;;5078583;28;20421;-84
2021/08/02 02:42:40;;;;;;;3.50;3.00;;;16.70;99.90;;;;;;5096822;28;20389;-84
2021/08/02 02:45:06;;;;;;;4.83;2.60;;;16.70;99.90;;;;;;5096427;28;20468;-84
2021/08/02 02:47:33;;;;;;;3.87;3.00;;;16.60;99.90;;;;;;5096972;28;20400;-84
2021/08/02 02:50:01;;;;;;;2.50;2.30;;;16.70;99.90;;;;;;5096782;28;20446;-84
2021/08/02 02:52:27;;;;;;;4.33;4.03;;;16.70;99.90;;;;;;5096709;28;20407;-84
2021/08/02 02:54:54;;;;;;;3.00;2.70;;;16.70;99.90;;;;;;5096535;28;20992;-84
2021/08/02 02:57:20;;;;;;;3.00;2.70;;;16.80;99.90;;;;;;5061921;28;20167;-84
2021/08/02 02:59:46;;;;;;;2.90;2.70;;;16.80;99.90;;;;;;5096727;28;20396;-84
2021/08/02 03:02:13;;;;;;;2.60;2.40;;;16.80;99.90;;;;;;5096534;28;20363;-84
2021/08/02 03:04:43;;;;;;;2.40;2.20;;;16.80;99.90;;;;;;5096256;28;20600;-84
2021/08/02 03:07:13;;;;;;;4.97;2.20;;;16.80;99.90;;;;;;5096491;28;20384;-84
2021/08/02 03:09:41;;;;;;;3.60;2.63;;;16.60;99.90;;;;;;5096220;28;20420;-84
2021/08/02 03:12:07;;;;;;;2.70;2.50;;;16.50;99.90;;;;;;5096348;28;20385;-84
2021/08/02 03:14:33;;;;;;;2.43;2.23;;;16.60;99.90;;;;;;5096154;28;20481;-84
2021/08/02 03:16:58;;;;;;;3.87;2.70;;;16.40;99.90;;;;;;5095891;28;20841;-84
2021/08/02 03:19:24;;;;;;;2.83;2.63;;;16.40;99.90;;;;;;5096086;28;20486;-84
2021/08/02 03:21:49;;;;;;;3.10;2.33;;;16.40;99.90;;;;;;5077466;28;20174;-84
2021/08/02 03:24:25;;;;;;;3.13;2.83;;;16.40;99.90;;;;;;5096299;28;20616;-84
2021/08/02 03:26:57;;;;;;;2.67;2.47;;;16.40;99.90;;;;;;5096010;28;20158;-82
2021/08/02 03:29:29;;;;;;;3.00;2.13;;;16.50;99.90;;;;;;5077582;28;20405;-84
2021/08/02 03:31:59;;;;;;;2.77;2.57;;;16.50;99.90;;;;;;5095985;28;20396;-84
2021/08/02 03:34:28;;;;;;;2.90;2.57;;;16.50;99.90;;;;;;5096143;28;20432;-84
2021/08/02 03:36:58;;;;;;;3.60;2.97;;;16.50;99.90;;;;;;5096300;28;20610;-84
2021/08/02 03:39:25;;;;;;;4.60;2.37;;;16.50;99.90;;;;;;5095712;28;20392;-84
2021/08/02 03:41:51;;;;;;;3.60;2.50;;;16.50;99.90;;;;;;5096090;28;20385;-84
2021/08/02 03:44:21;;;;;;;2.13;2.03;;;16.50;99.90;;;;;;5078159;28;20384;-85
2021/08/02 03:46:47;;;;;;;2.07;1.80;;;16.50;99.90;;;;;;5065327;28;20412;-84
2021/08/02 03:49:13;;;;;;;1.70;1.60;;;16.50;99.90;;;;;;5097188;28;20384;-84
2021/08/02 03:51:49;;;;;;;3.00;2.13;;;16.40;99.90;;;;;;5098512;28;20393;-84
2021/08/02 03:54:15;;;;;;;3.03;2.27;;;16.40;99.90;;;;;;5098156;28;20201;-84
2021/08/02 03:56:43;;;;;;;2.60;2.40;;;16.40;99.90;;;;;;5096434;28;20381;-84
2021/08/02 03:59:10;;;;;;;3.50;2.53;;;16.50;99.90;;;;;;5098289;28;20538;-84
2021/08/02 04:01:39;;;;;;;2.50;2.30;;;16.40;99.90;;;;;;5078988;28;20928;-84
2021/08/02 04:04:06;;;;;;;1.93;1.83;;;16.40;99.90;;;;;;5097770;28;20743;-84
2021/08/02 04:06:32;;;;;;;2.03;1.93;;;16.30;99.90;;;;;;5107267;28;20396;-83
2021/08/02 04:08:57;;;;;;;2.87;2.00;;;16.40;99.90;;;;;;5100439;28;20424;-84
2021/08/02 04:11:23;;;;;;;2.20;1.93;;;16.50;99.90;;;;;;5098104;28;20853;-84
2021/08/02 04:13:48;;;;;;;2.83;2.13;;;16.30;99.90;;;;;;5077154;28;20183;-83
2021/08/02 04:16:14;;;;;;;2.20;2.10;;;16.50;99.90;;;;;;5095591;28;20162;-83
2021/08/02 04:18:39;;;;;;;2.13;1.93;;;16.50;99.90;;;;;;5095210;28;20232;-84
2021/08/02 04:21:05;;;;;;;2.33;2.13;;;16.50;99.90;;;;;;5094807;28;20214;-84
2021/08/02 04:23:30;;;;;;;2.40;1.90;;;16.40;99.90;;;;;;5094894;28;20158;-84
2021/08/02 04:25:56;;;;;;;3.47;1.77;;;16.50;99.90;;;;;;5095245;28;20163;-84
2021/08/02 04:28:21;;;;;;;2.53;2.33;;;16.50;99.90;;;;;;5095413;28;20254;-84
2021/08/02 04:30:47;;;;;;;3.63;2.40;;;16.20;99.90;;;;;;5100103;28;20151;-81
2021/08/02 04:33:12;;;;;;;3.53;2.00;;;16.30;99.90;;;;;;5107491;28;20155;-81
2021/08/02 04:35:41;;;;;;;3.07;1.80;;;16.40;99.90;;;;;;5109203;28;20217;-82
2021/08/02 04:38:06;;;;;;;2.30;2.10;;;16.40;99.90;;;;;;5109613;28;20155;-82
2021/08/02 04:40:32;;;;;;;6.07;2.47;;;16.40;99.90;;;;;;5109241;28;20400;-81
2021/08/02 04:42:58;;;;;;;3.00;2.60;;;16.20;99.90;;;;;;5109481;28;20385;-82
2021/08/02 04:45:23;;;;;;;2.03;1.90;;;16.30;99.90;;;;;;5110022;28;20194;-81
2021/08/02 04:47:50;;;;;;;2.10;2.00;;;16.40;99.90;;;;;;5109582;28;20197;-81
2021/08/02 04:50:16;;;;;;;2.60;2.40;;;16.40;99.90;;;;;;5110257;28;20163;-81
2021/08/02 04:52:42;;;;;;;2.50;2.20;;;16.40;99.90;;;;;;5099996;28;20442;-84
2021/08/02 04:55:08;;;;;;;3.30;2.40;;;16.40;99.90;;;;;;5098522;28;20190;-83
2021/08/02 04:57:34;;;;;;;2.43;2.23;;;15.80;99.90;;;;;;5098336;28;20750;-84
2021/08/02 04:59:59;;;;;;;2.80;2.10;;;15.40;99.90;;;;;;5098314;28;20159;-84
2021/08/02 05:02:25;;;;;;;2.27;2.10;;;15.30;99.90;;;;;;5098005;28;20258;-84
2021/08/02 05:04:51;;;;;;;2.83;2.50;;;15.30;99.90;;;;;;5098611;28;20173;-83
2021/08/02 05:07:17;;;;;;;2.70;2.50;;;15.40;99.90;;;;;;5098037;28;20234;-84
2021/08/02 05:09:42;;;;;;;3.27;2.50;;;15.60;99.90;;;;;;5097869;28;20198;-84
2021/08/02 05:12:09;;;;;;;2.77;2.53;;;15.80;99.90;;;;;;5097838;28;20395;-84
2021/08/02 05:14:35;;;;;;;3.83;2.30;;;15.60;99.90;;;;;;5097498;28;20194;-83
2021/08/02 05:17:00;;;;;;;2.30;2.20;;;15.80;99.90;;;;;;5097748;28;20393;-83
2021/08/02 05:19:26;;;;;;;2.57;2.37;;;15.80;99.90;;;;;;5079750;28;20210;-83
2021/08/02 05:21:51;;;;;;;2.27;2.00;;;15.70;99.90;;;;;;5098080;28;20155;-83
2021/08/02 05:24:17;;;;;;;3.10;2.57;;;16.00;99.90;;;;;;5097299;28;20572;-84
2021/08/02 05:26:43;;;;;;;3.33;3.03;;;16.10;99.90;;;;;;5097574;28;20231;-84
2021/08/02 05:29:09;;;;;;;2.60;2.30;;;16.40;99.90;;;;;;5097751;28;20653;-84
2021/08/02 05:31:34;;;;;;;2.67;2.17;;;16.40;99.90;;;;;;5097888;28;20397;-83
2021/08/02 05:34:00;;;;;;;2.83;2.63;;;16.60;99.90;;;;;;5097600;28;20194;-84
2021/08/02 05:36:25;;;;;;;3.77;2.30;;;16.40;99.90;;;;;;5097485;28;20163;-84
2021/08/02 05:38:51;;;;;;;3.33;3.03;;;16.50;99.90;;;;;;5097033;28;20198;-86
2021/08/02 05:41:16;;;;;;;2.20;2.10;;;16.10;99.90;;;;;;5097683;28;20167;-84
2021/08/02 05:43:42;;;;;;;4.57;2.47;;;16.40;99.90;;;;;;5096575;28;20163;-84
2021/08/02 05:46:07;;;;;;;5.23;2.43;;;16.20;99.90;;;;;;5096836;28;20167;-84
2021/08/02 05:48:33;;;;;;;4.33;2.50;;;16.20;99.90;;;;;;5097981;28;20162;-84
2021/08/02 05:50:59;;;;;;;3.87;2.27;;;16.00;99.90;;;;;;5097692;28;20163;-83
2021/08/02 05:53:24;;;;;;;3.27;3.07;;;16.20;99.90;;;;;;5096775;28;20255;-83
2021/08/02 05:55:50;;;;;;;2.70;2.50;;;16.20;99.90;;;;;;5097323;28;20163;-84
2021/08/02 05:58:15;;;;;;;5.30;3.00;;;16.40;99.90;;;;;;5096640;28;20194;-84
2021/08/02 06:00:41;;;;;;;2.90;2.57;;;16.40;99.90;;;;;;5097158;28;20628;-84
2021/08/02 06:03:06;;;;;;;3.13;2.90;;;16.50;99.90;;;;;;5096524;28;20200;-84
2021/08/02 06:05:32;;;;;;;5.03;2.93;;;16.30;99.90;;;;;;5097506;28;20257;-84
2021/08/02 06:07:57;;;;;;;2.70;2.50;;;16.50;99.90;;;;;;5096388;28;20202;-83
2021/08/02 06:10:23;;;;;;;3.23;3.03;;;16.50;99.90;;;;;;5001152;28;20270;-84
2021/08/02 06:12:49;;;;;;;3.00;2.70;;;16.40;99.90;;;;;;5019776;28;20280;-83
2021/08/02 06:15:15;;;;;;;2.87;2.67;;;16.30;99.90;;;;;;4994481;28;20240;-84
2021/08/02 06:17:41;;;;;;;7.67;2.80;;;16.60;99.90;;;;;;5034090;28;20419;-84
2021/08/02 06:20:07;;;;;;;2.67;2.47;;;16.30;99.90;;;;;;5034619;28;20474;-83
2021/08/02 06:22:33;;;;;;;4.30;3.70;;;16.60;99.90;;;;;;5033897;28;20172;-83
2021/08/02 06:24:59;;;;;;;3.07;2.60;;;16.90;99.90;;;;;;5033622;28;20435;-82
2021/08/02 06:27:30;;;;;;;4.97;2.53;;;16.60;99.90;;;;;;5034293;28;20530;-84
2021/08/02 06:29:56;;;;;;;3.10;2.80;;;16.70;99.90;;;;;;5017965;28;20188;-84
2021/08/02 06:32:21;;;;;;;4.20;3.30;;;17.10;99.90;;;;;;5034217;28;20419;-84
2021/08/02 06:34:47;;;;;;;3.60;3.30;;;17.30;99.90;;;;;;5017193;28;21046;-84
2021/08/02 06:37:13;;;;;;;4.00;3.20;;;17.00;99.90;;;;;;5017795;28;20569;-83
2021/08/02 06:39:38;;;;;;;4.40;3.07;;;17.40;99.90;;;;;;5035312;28;20161;-84
2021/08/02 06:42:04;;;;;;;4.17;3.87;;;17.20;99.90;;;;;;5067120;28;20190;-84
2021/08/02 06:44:29;;;;;;;3.87;3.47;;;17.00;99.90;;;;;;5096154;28;20538;-84
2021/08/02 06:46:55;;;;;;;4.20;3.60;;;17.40;99.90;;;;;;5074367;28;20185;-85
2021/08/02 06:49:20;;;;;;;4.97;3.97;;;17.70;99.90;;;;;;5102169;28;20237;-85
2021/08/02 06:51:46;;;;;;;3.83;3.53;;;18.00;99.90;;;;;;5093114;28;20546;-85
2021/08/02 06:54:11;;;;;;;4.07;3.77;;;18.00;99.90;;;;;;5095871;28;20198;-85
2021/08/02 06:56:37;;;;;;;4.00;3.70;;;18.10;99.90;;;;;;5038484;28;20192;-85
2021/08/02 06:59:02;;;;;;;3.70;3.30;;;17.80;99.90;;;;;;5046837;28;20294;-85
2021/08/02 07:01:28;;;;;;;4.17;3.47;;;18.10;99.90;;;;;;5027592;28;20244;-85
2021/08/02 07:03:53;;;;;;;4.10;3.60;;;18.20;99.90;;;;;;5044485;28;20321;-85
2021/08/02 07:06:19;;;;;;;4.00;3.70;;;18.30;99.90;;;;;;5035823;28;20192;-85
2021/08/02 07:08:45;;;;;;;3.30;3.10;;;18.40;99.90;;;;;;5041670;28;20199;-85
2021/08/02 07:11:10;;;;;;;5.43;3.30;;;18.50;99.90;;;;;;5037057;28;20191;-85
2021/08/02 07:13:36;;;;;;;3.90;3.50;;;18.30;99.90;;;;;;5039499;28;20196;-85
2021/08/02 07:16:01;;;;;;;3.97;3.50;;;18.00;99.90;;;;;;5032978;28;20183;-85
2021/08/02 07:18:30;;;;;;;4.40;3.93;;;17.80;99.90;;;;;;5055840;28;20158;-85
2021/08/02 07:20:56;;;;;;;5.07;3.73;;;17.60;99.90;;;;;;5044076;28;20715;-85
2021/08/02 07:23:21;;;;;;;4.00;3.70;;;17.50;99.90;;;;;;5051125;28;20422;-85
2021/08/02 07:25:47;;;;;;;3.57;3.27;;;17.70;99.90;;;;;;5037585;28;20261;-85
2021/08/02 07:28:13;;;;;;;4.90;4.10;;;18.20;99.90;;;;;;5082334;28;20194;-85
2021/08/02 07:30:39;;;;;;;3.90;3.60;;;18.60;99.90;;;;;;5097176;28;20175;-85
2021/08/02 07:33:05;;;;;;;3.67;3.37;;;18.60;99.90;;;;;;5097571;28;20473;-85
2021/08/02 07:35:30;;;;;;;4.90;3.73;;;18.80;99.90;;;;;;5097146;28;20539;-85
2021/08/02 07:37:56;;;;;;;4.40;4.00;;;18.70;99.90;;;;;;5095707;28;20638;-85
2021/08/02 07:40:21;;;;;;;4.40;3.57;;;18.70;99.90;;;;;;5097847;28;20187;-85
2021/08/02 07:42:47;;;;;;;4.90;3.70;;;18.80;99.90;;;;;;5095539;28;20228;-85
2021/08/02 07:45:13;;;;;;;3.40;3.10;;;18.90;99.90;;;;;;5096578;28;20597;-85
2021/08/02 07:47:38;;;;;;;4.33;3.93;;;18.60;99.90;;;;;;5098962;28;20172;-85
2021/08/02 07:50:05;;;;;;;4.80;3.60;;;19.10;99.90;;;;;;5100422;28;20171;-85
2021/08/02 07:52:31;;;;;;;4.33;3.97;;;18.80;99.90;;;;;;5055138;28;20189;-85
2021/08/02 07:54:58;;;;;;;4.60;4.20;;;19.00;99.90;;;;;;5096726;28;20460;-85
2021/08/02 07:57:24;;;;;;;4.83;3.90;;;19.10;99.90;;;;;;5062637;28;20503;-84
2021/08/02 07:59:49;;;;;;;3.90;3.60;;;19.20;99.90;;;;;;5097682;28;20445;-85
2021/08/02 08:02:15;;;;;;;2.90;2.70;;;19.60;99.90;;;;;;5096278;28;20302;-84
2021/08/02 08:04:40;;;;;;;4.50;3.63;;;19.90;99.90;;;;;;5105395;28;20196;-84
2021/08/02 08:07:06;;;;;;;4.07;3.67;;;20.20;99.90;;;;;;5105587;28;20219;-85
2021/08/02 08:09:31;;;;;;;3.97;3.60;;;20.50;99.90;;;;;;5103594;28;20298;-85
2021/08/02 08:11:57;;;;;;;3.07;2.77;;;20.60;99.90;;;;;;5082117;28;20174;-85
2021/08/02 08:14:27;;;;;;;3.10;2.90;;;20.40;99.90;;;;;;5083147;28;20202;-85
2021/08/02 08:16:52;;;;;;;4.03;3.67;;;20.00;99.90;;;;;;5107295;28;20222;-83
2021/08/02 08:19:18;;;;;;;3.50;2.90;;;20.20;99.90;;;;;;5084370;28;20417;-85
2021/08/02 08:21:43;;;;;;;3.43;3.03;;;20.30;99.90;;;;;;5116830;28;20159;-83
2021/08/02 08:24:09;;;;;;;3.30;3.00;;;20.30;99.90;;;;;;5112561;28;20241;-85
2021/08/02 08:26:35;;;;;;;3.60;3.30;;;19.60;99.90;;;;;;5112210;28;20182;-81
2021/08/02 08:29:01;;;;;;;3.40;3.10;;;19.30;99.90;;;;;;5117236;28;20182;-81
2021/08/02 08:31:27;;;;;;;3.13;2.93;;;19.70;99.90;;;;;;5112683;28;20190;-84
2021/08/02 08:33:52;;;;;;;3.60;3.27;;;19.80;99.90;;;;;;5083534;28;20903;-84
2021/08/02 08:36:18;;;;;;;3.40;3.10;;;19.70;99.90;;;;;;5083892;28;20175;-84
2021/08/02 08:38:44;;;;;;;4.07;2.90;;;19.80;99.90;;;;;;5101099;28;20660;-84
2021/08/02 08:41:13;;;;;;;3.83;2.90;;;19.90;99.90;;;;;;5099690;28;20287;-84
2021/08/02 08:43:39;;;;;;;2.77;2.57;;;20.10;99.90;;;;;;5078896;28;20577;-84
2021/08/02 08:46:06;;;;;;;2.63;2.33;;;20.30;99.90;;;;;;5095725;28;20566;-84
2021/08/02 08:48:31;;;;;;;3.00;2.80;;;20.60;99.90;;;;;;5076430;28;20417;-85
2021/08/02 08:51:00;;;;;;;2.53;2.40;;;20.20;99.90;;;;;;5078751;28;20393;-85
2021/08/02 08:53:27;;;;;;;3.50;2.53;;;20.10;99.90;;;;;;5090928;28;20185;-86
2021/08/02 08:55:52;;;;;;;3.20;2.90;;;20.30;99.90;;;;;;5076046;28;20936;-85
2021/08/02 08:58:18;;;;;;;2.47;2.27;;;20.30;99.90;;;;;;5081367;28;20484;-85
2021/08/02 09:00:43;;;;;;;2.70;2.50;;;20.40;99.90;;;;;;5097994;28;20178;-85
2021/08/02 09:03:14;;;;;;;2.33;2.13;;;19.50;99.90;;;;;;5047601;28;20636;-84
2021/08/02 09:05:43;;;;;;;6.17;2.70;;;19.40;99.90;;;;;;5091911;28;20173;-84
2021/08/02 09:08:14;;;;;;;2.73;2.53;;;19.40;99.90;;;;;;5088274;28;20544;-86
2021/08/02 09:10:40;;;;;;;2.67;2.37;;;19.30;99.90;;;;;;5101969;28;20178;-85
2021/08/02 09:13:06;;;;;;;3.70;3.40;;;19.40;99.90;;;;;;5082440;28;20452;-85
2021/08/02 09:15:35;;;;;;;3.13;2.83;;;19.70;99.90;;;;;;5094469;28;20266;-85
2021/08/02 09:18:01;;;;;;;2.97;2.77;;;20.20;99.90;;;;;;5105151;28;20170;-83
2021/08/02 09:20:27;;;;;;;2.83;2.63;;;20.30;99.90;;;;;;5075057;28;20465;-83
2021/08/02 09:22:53;;;;;;;3.30;3.00;;;20.10;99.90;;;;;;5097709;28;20435;-84
2021/08/02 09:25:21;;;;;;;3.80;2.50;;;19.80;99.90;;;;;;5111553;28;20167;-85
2021/08/02 09:27:49;;;;;;;4.67;2.30;;;20.10;99.90;;;;;;5094078;28;20391;-86
2021/08/02 09:30:29;;;;;;;5.20;2.80;;;19.80;99.90;;;;;;5077931;28;20433;-82
2021/08/02 09:33:02;;;;;;;3.20;2.90;;;20.60;99.90;;;;;;5102682;28;20428;-81
2021/08/02 09:35:34;;;;;;;2.60;2.40;;;20.90;99.90;;;;;;5089158;28;20525;-83
2021/08/02 09:38:04;;;;;;;5.73;2.40;;;20.50;99.90;;;;;;5112632;28;20480;-86
2021/08/02 09:40:42;;;;;;;6.97;2.77;;;20.10;99.90;;;;;;5097068;28;20413;-85
2021/08/02 09:43:20;;;;;;;5.03;2.27;;;20.20;99.90;;;;;;5083070;28;20431;-88
2021/08/02 09:45:52;;;;;;;2.90;2.70;;;20.70;99.90;;;;;;5055336;28;20524;-87
2021/08/02 09:48:19;;;;;;;2.87;2.33;;;21.00;99.90;;;;;;5100030;28;20404;-86
2021/08/02 09:50:46;;;;;;;2.90;2.40;;;21.20;99.90;;;;;;5090504;28;20870;-85
2021/08/02 09:53:15;;;;;;;3.00;2.50;;;21.10;99.90;;;;;;5101652;28;20489;-85
2021/08/02 09:55:43;;;;;;;2.07;1.97;;;21.70;99.90;;;;;;5100074;28;20571;-87
2021/08/02 09:58:12;;;;;;;2.60;2.40;;;21.80;99.90;;;;;;5081972;28;20447;-86
2021/08/02 10:00:38;;;;;;;2.57;2.37;;;21.40;99.90;;;;;;5100639;28;20854;-86
2021/08/02 10:03:04;;;;;;;3.50;3.30;;;21.90;99.90;;;;;;5101729;28;20421;-86
2021/08/02 10:05:30;;;;;;;3.27;2.97;;;21.60;99.90;;;;;;5099782;28;20558;-86
2021/08/02 10:07:57;;;;;;;3.40;2.57;;;21.50;99.90;;;;;;5094694;28;20458;-87
2021/08/02 10:10:22;;;;;;;2.80;2.60;;;20.70;99.90;;;;;;5084085;28;20862;-87
2021/08/02 10:12:49;;;;;;;3.30;3.00;;;20.70;99.90;;;;;;5098831;28;20444;-86
2021/08/02 10:15:20;;;;;;;2.43;2.23;;;21.20;99.90;;;;;;5099138;28;20301;-87
2021/08/02 10:17:51;;;;;;;2.77;2.43;;;21.00;99.90;;;;;;5099112;28;20477;-86
2021/08/02 10:20:26;;;;;;;3.37;2.33;;;21.10;99.90;;;;;;5077438;28;20477;-86
2021/08/02 10:22:53;;;;;;;6.97;3.00;;;21.20;99.90;;;;;;5080489;28;20421;-87
2021/08/02 10:25:34;;;;;;;2.80;2.60;;;21.00;99.90;;;;;;5079788;28;20437;-86
2021/08/02 10:28:16;;;;;;;3.50;2.23;;;21.80;99.90;;;;;;5077920;28;20573;-87
2021/08/02 10:30:45;;;;;;;2.77;2.53;;;22.10;99.90;;;;;;5075943;28;20909;-87
2021/08/02 10:33:10;;;;;;;2.50;2.30;;;22.30;99.90;;;;;;5076407;28;20417;-86
2021/08/02 10:35:39;;;;;;;2.23;2.03;;;21.60;99.90;;;;;;5077406;28;20445;-86
2021/08/02 10:38:08;;;;;;;4.23;2.80;;;21.30;99.90;;;;;;5078396;28;20179;-86
2021/08/02 10:40:49;;;;;;;3.73;2.50;;;21.80;99.90;;;;;;5078899;28;20410;-86
2021/08/02 10:43:28;;;;;;;1.67;1.57;;;22.10;99.90;;;;;;5079221;28;20488;-87
2021/08/02 10:45:56;;;;;;;4.37;2.37;;;22.20;99.90;;;;;;5078294;28;20485;-86
2021/08/02 10:48:24;;;;;;;2.63;2.20;;;21.50;99.90;;;;;;5077381;28;20402;-87
2021/08/02 10:50:50;;;;;;;2.37;2.27;;;21.70;99.90;;;;;;5075997;28;20467;-86
2021/08/02 10:53:17;;;;;;;4.03;2.70;;;21.80;99.90;;;;;;5078006;28;20409;-84
2021/08/02 10:55:47;;;;;;;2.43;2.33;;;21.80;99.90;;;;;;5076278;28;20203;-84
2021/08/02 10:58:23;;;;;;;2.50;2.30;;;21.70;99.90;;;;;;5077325;28;20398;-84
2021/08/02 11:00:55;;;;;;;2.37;2.17;;;21.20;99.90;;;;;;5074243;28;20422;-85
2021/08/02 11:03:29;;;;;;;3.20;2.40;;;21.70;99.90;;;;;;5077929;28;20402;-84
2021/08/02 11:05:55;;;;;;;2.53;2.43;;;21.90;99.90;;;;;;5076718;28;20501;-83
2021/08/02 11:08:21;;;;;;;3.30;2.70;;;21.60;99.90;;;;;;5078845;28;20857;-86
2021/08/02 11:10:47;;;;;;;4.93;2.53;;;21.70;99.90;;;;;;5078588;28;20175;-85
2021/08/02 11:13:25;;;;;;;2.27;2.17;;;21.60;99.90;;;;;;5078121;28;20259;-85
2021/08/02 11:15:51;;;;;;;2.80;2.50;;;21.40;99.90;;;;;;5076813;28;20445;-85
2021/08/02 11:18:24;;;;;;;2.50;2.30;;;20.90;99.90;;;;;;5076503;28;20716;-85
2021/08/02 11:20:50;;;;;;;3.93;3.40;;;20.80;99.90;;;;;;5092088;28;20231;-85
2021/08/02 11:23:16;;;;;;;2.47;2.27;;;20.90;99.90;;;;;;5097545;28;20400;-86
2021/08/02 11:25:41;;;;;;;6.40;2.20;;;20.90;99.90;;;;;;5097698;28;20162;-85
2021/08/02 11:28:07;;;;;;;3.40;2.43;;;20.50;99.90;;;;;;5100336;28;20560;-83
2021/08/02 11:30:34;;;;;;;2.27;2.13;;;20.50;99.90;;;;;;5102795;28;20163;-85
2021/08/02 11:33:00;;;;;;;2.80;1.90;;;21.30;99.90;;;;;;5098766;28;20159;-85
2021/08/02 11:35:34;;;;;;;1.93;1.83;;;22.20;99.90;;;;;;5080356;28;20444;-86
2021/08/02 11:38:00;;;;;;;3.00;2.67;;;22.70;99.90;;;;;;5080134;28;20201;-85
2021/08/02 11:40:33;;;;;;;2.33;2.13;;;22.70;99.90;;;;;;5098805;28;20401;-84
2021/08/02 11:43:02;;;;;;;4.23;2.43;;;22.70;99.90;;;;;;5083680;28;20158;-85
2021/08/02 11:45:28;;;;;;;2.60;2.40;;;21.70;99.90;;;;;;5084567;28;20427;-85
2021/08/02 11:47:54;;;;;;;4.40;2.30;;;21.90;99.90;;;;;;5102179;28;20416;-85
2021/08/02 11:50:21;;;;;;;2.50;2.27;;;22.10;99.90;;;;;;5101980;28;21008;-85
2021/08/02 11:52:57;;;;;;;4.10;1.83;;;21.60;99.90;;;;;;5077831;28;20427;-85
2021/08/02 11:55:23;;;;;;;2.47;2.03;;;21.40;99.90;;;;;;5101987;28;20459;-85
2021/08/02 11:57:58;;;;;;;2.70;2.50;;;21.40;99.90;;;;;;5104492;28;20414;-81
2021/08/02 12:00:23;;;;;;;2.33;2.13;;;21.20;99.90;;;;;;5108411;28;20241;-84
2021/08/02 12:02:50;;;;;;;2.17;2.03;;;20.80;99.90;;;;;;5060723;28;20474;-83
2021/08/02 12:05:22;;;;;;;2.47;2.27;;;20.90;99.90;;;;;;5080316;28;20237;-83
2021/08/02 12:07:48;;;;;;;2.27;1.80;;;21.20;99.90;;;;;;5095235;28;20420;-81
2021/08/02 12:10:18;;;;;;;2.83;2.63;;;21.90;99.90;;;;;;5101406;28;20417;-83
2021/08/02 12:12:58;;;;;;;3.53;2.03;;;22.80;99.90;;;;;;5092102;28;20402;-83
2021/08/02 12:15:24;;;;;;;2.10;2.00;;;22.70;99.90;;;;;;5101678;28;20453;-84
2021/08/02 12:17:52;;;;;;;2.03;1.90;;;23.50;99.90;;;;;;5099457;28;20873;-83
2021/08/02 12:20:30;;;;;;;1.93;1.83;;;22.90;99.90;;;;;;5094585;28;20234;-83
2021/08/02 12:23:01;;;;;;;2.20;2.00;;;22.30;99.90;;;;;;5072315;28;20508;-83
2021/08/02 12:25:46;;;;;;;2.60;2.30;;;22.70;99.90;;;;;;5088056;28;20426;-82
2021/08/02 12:28:12;;;;;;;2.33;1.70;;;22.60;99.90;;;;;;5070490;28;20436;-82
2021/08/02 12:30:39;;;;;;;2.27;2.07;;;22.70;99.90;;;;;;5088536;28;20401;-83
2021/08/02 12:33:08;;;;;;;3.17;2.20;;;21.50;99.90;;;;;;5090466;28;20393;-82
2021/08/02 12:35:33;;;;;;;2.50;2.10;;;21.30;99.90;;;;;;5089644;28;20441;-82
2021/08/02 12:38:01;;;;;;;3.10;1.73;;;21.20;99.90;;;;;;5092793;28;20451;-85
2021/08/02 12:40:27;;;;;;;2.47;2.27;;;21.50;99.90;;;;;;5060769;28;20231;-85
2021/08/02 12:42:53;;;;;;;1.87;1.77;;;21.40;99.90;;;;;;5078384;28;20417;-85
2021/08/02 12:45:19;;;;;;;1.53;1.43;;;21.70;99.90;;;;;;5096423;28;20436;-86
2021/08/02 12:47:46;;;;;;;1.53;1.43;;;22.10;99.90;;;;;;5096021;28;20227;-85
2021/08/02 12:50:13;;;;;;;1.40;1.30;;;22.90;99.90;;;;;;5095287;28;20406;-87
2021/08/02 12:52:38;;;;;;;1.30;1.20;;;23.10;99.90;;;;;;5095599;28;20440;-84